sensor_id;sensor_type;location;lat;lon;timestamp;temperature;humidity
10129;DHT22;5104;50.720;7.044;2023-01-26T00:02:22;0.80;71.20
10129;DHT22;5104;50.720;7.044;2023-01-26T00:04:49;0.70;99.90
10129;DHT22;5104;50.720;7.044;2023-01-26T00:07:16;0.70;76.00
10129;DHT22;5104;50.720;7.044;2023-01-26T00:09:43;0.80;99.90
10129;DHT22;5104;50.720;7.044;2023-01-26T00:12:10;0.80;1.00
10129;DHT22;5104;50.720;7.044;2023-01-26T00:14:36;0.90;1.00
10129;DHT22;5104;50.720;7.044;2023-01-26T00:17:20;0.80;1.00
10129;DHT22;5104;50.720;7.044;2023-01-26T00:19:54;0.80;1.00
10129;DHT22;5104;50.720;7.044;2023-01-26T00:22:25;0.70;1.00
10129;DHT22;5104;50.720;7.044;2023-01-26T00:24:52;0.70;1.00
10129;DHT22;5104;50.720;7.044;2023-01-26T00:27:19;0.60;1.00
10129;DHT22;5104;50.720;7.044;2023-01-26T00:29:45;0.70;1.00
10129;DHT22;5104;50.720;7.044;2023-01-26T00:32:12;0.60;1.00
10129;DHT22;5104;50.720;7.044;2023-01-26T00:34:40;0.60;1.00
10129;DHT22;5104;50.720;7.044;2023-01-26T00:37:07;0.60;1.00
10129;DHT22;5104;50.720;7.044;2023-01-26T00:39:34;0.50;1.00
10129;DHT22;5104;50.720;7.044;2023-01-26T00:42:01;0.50;23.30
10129;DHT22;5104;50.720;7.044;2023-01-26T00:44:39;0.50;1.00
10129;DHT22;5104;50.720;7.044;2023-01-26T00:47:10;0.50;6.50
10129;DHT22;5104;50.720;7.044;2023-01-26T00:49:37;0.50;87.40
10129;DHT22;5104;50.720;7.044;2023-01-26T00:52:05;0.50;62.00
10129;DHT22;5104;50.720;7.044;2023-01-26T00:54:32;0.50;99.90
10129;DHT22;5104;50.720;7.044;2023-01-26T00:56:59;0.60;73.40
10129;DHT22;5104;50.720;7.044;2023-01-26T00:59:26;0.60;1.00
10129;DHT22;5104;50.720;7.044;2023-01-26T01:01:54;0.50;1.00
10129;DHT22;5104;50.720;7.044;2023-01-26T01:04:21;0.50;1.00
10129;DHT22;5104;50.720;7.044;2023-01-26T01:06:47;0.50;1.00
10129;DHT22;5104;50.720;7.044;2023-01-26T01:09:16;0.50;1.00
10129;DHT22;5104;50.720;7.044;2023-01-26T01:11:43;0.50;1.00
10129;DHT22;5104;50.720;7.044;2023-01-26T01:14:11;0.50;1.00
10129;DHT22;5104;50.720;7.044;2023-01-26T01:16:38;0.50;1.00
10129;DHT22;5104;50.720;7.044;2023-01-26T01:19:05;0.50;1.00
10129;DHT22;5104;50.720;7.044;2023-01-26T01:21:32;0.40;1.00
10129;DHT22;5104;50.720;7.044;2023-01-26T01:24:00;0.40;1.00
10129;DHT22;5104;50.720;7.044;2023-01-26T01:26:28;0.40;1.00
10129;DHT22;5104;50.720;7.044;2023-01-26T01:28:55;0.40;1.00
10129;DHT22;5104;50.720;7.044;2023-01-26T01:31:23;0.40;1.00
10129;DHT22;5104;50.720;7.044;2023-01-26T01:33:51;0.40;1.00
10129;DHT22;5104;50.720;7.044;2023-01-26T01:36:18;0.40;1.00
10129;DHT22;5104;50.720;7.044;2023-01-26T01:38:45;0.40;1.00
10129;DHT22;5104;50.720;7.044;2023-01-26T01:41:13;0.50;1.00
10129;DHT22;5104;50.720;7.044;2023-01-26T01:43:42;0.40;1.00
10129;DHT22;5104;50.720;7.044;2023-01-26T01:46:17;0.40;99.90
10129;DHT22;5104;50.720;7.044;2023-01-26T01:48:51;0.50;1.00
10129;DHT22;5104;50.720;7.044;2023-01-26T01:51:20;0.40;1.00
10129;DHT22;5104;50.720;7.044;2023-01-26T01:53:53;0.50;1.00
10129;DHT22;5104;50.720;7.044;2023-01-26T01:56:23;0.50;1.00
10129;DHT22;5104;50.720;7.044;2023-01-26T01:58:57;0.50;99.90
10129;DHT22;5104;50.720;7.044;2023-01-26T02:01:25;0.40;1.00
10129;DHT22;5104;50.720;7.044;2023-01-26T02:03:55;0.40;1.00
10129;DHT22;5104;50.720;7.044;2023-01-26T02:06:28;0.50;1.00
10129;DHT22;5104;50.720;7.044;2023-01-26T02:08:57;0.50;1.00
10129;DHT22;5104;50.720;7.044;2023-01-26T02:11:27;0.50;1.00
10129;DHT22;5104;50.720;7.044;2023-01-26T02:13:57;0.50;1.00
10129;DHT22;5104;50.720;7.044;2023-01-26T02:16:25;0.50;1.00
10129;DHT22;5104;50.720;7.044;2023-01-26T02:18:53;0.50;1.00
10129;DHT22;5104;50.720;7.044;2023-01-26T02:21:21;0.50;99.90
10129;DHT22;5104;50.720;7.044;2023-01-26T02:24:06;0.50;99.90
10129;DHT22;5104;50.720;7.044;2023-01-26T02:26:38;0.50;1.00
10129;DHT22;5104;50.720;7.044;2023-01-26T02:29:09;0.50;1.00
10129;DHT22;5104;50.720;7.044;2023-01-26T02:31:37;0.40;99.90
10129;DHT22;5104;50.720;7.044;2023-01-26T02:34:04;0.40;1.00
10129;DHT22;5104;50.720;7.044;2023-01-26T02:36:32;0.40;99.90
10129;DHT22;5104;50.720;7.044;2023-01-26T02:39:15;0.30;1.00
10129;DHT22;5104;50.720;7.044;2023-01-26T02:41:45;0.30;1.00
10129;DHT22;5104;50.720;7.044;2023-01-26T02:44:31;0.30;99.90
10129;DHT22;5104;50.720;7.044;2023-01-26T02:46:58;0.30;1.00
10129;DHT22;5104;50.720;7.044;2023-01-26T02:49:25;0.40;99.90
10129;DHT22;5104;50.720;7.044;2023-01-26T02:52:09;0.40;99.90
10129;DHT22;5104;50.720;7.044;2023-01-26T02:54:36;0.30;1.00
10129;DHT22;5104;50.720;7.044;2023-01-26T02:57:21;0.30;1.00
10129;DHT22;5104;50.720;7.044;2023-01-26T02:59:48;0.30;1.00
10129;DHT22;5104;50.720;7.044;2023-01-26T03:02:15;0.30;99.90
10129;DHT22;5104;50.720;7.044;2023-01-26T03:04:42;0.30;20.50
10129;DHT22;5104;50.720;7.044;2023-01-26T03:07:09;0.30;14.30
10129;DHT22;5104;50.720;7.044;2023-01-26T03:09:36;0.30;99.90
10129;DHT22;5104;50.720;7.044;2023-01-26T03:12:03;0.30;32.50
10129;DHT22;5104;50.720;7.044;2023-01-26T03:14:31;0.30;99.90
10129;DHT22;5104;50.720;7.044;2023-01-26T03:16:58;0.20;99.90
10129;DHT22;5104;50.720;7.044;2023-01-26T03:19:25;0.20;1.00
10129;DHT22;5104;50.720;7.044;2023-01-26T03:22:15;0.20;1.00
10129;DHT22;5104;50.720;7.044;2023-01-26T03:24:59;0.10;1.00
10129;DHT22;5104;50.720;7.044;2023-01-26T03:27:45;0.00;1.00
10129;DHT22;5104;50.720;7.044;2023-01-26T03:30:15;0.00;1.00
10129;DHT22;5104;50.720;7.044;2023-01-26T03:32:42;-0.10;49.90
10129;DHT22;5104;50.720;7.044;2023-01-26T03:35:09;-0.20;33.70
10129;DHT22;5104;50.720;7.044;2023-01-26T03:37:39;-0.20;99.90
10129;DHT22;5104;50.720;7.044;2023-01-26T03:40:10;-0.10;99.90
10129;DHT22;5104;50.720;7.044;2023-01-26T03:42:55;0.00;99.90
10129;DHT22;5104;50.720;7.044;2023-01-26T03:45:41;-0.10;99.90
10129;DHT22;5104;50.720;7.044;2023-01-26T03:48:25;-0.10;99.90
10129;DHT22;5104;50.720;7.044;2023-01-26T03:51:10;-0.10;99.90
10129;DHT22;5104;50.720;7.044;2023-01-26T03:53:54;-0.10;99.90
10129;DHT22;5104;50.720;7.044;2023-01-26T03:56:38;-0.10;99.90
10129;DHT22;5104;50.720;7.044;2023-01-26T03:59:06;-0.20;99.90
10129;DHT22;5104;50.720;7.044;2023-01-26T04:01:43;-0.20;99.90
10129;DHT22;5104;50.720;7.044;2023-01-26T04:04:28;-0.20;99.90
10129;DHT22;5104;50.720;7.044;2023-01-26T04:07:12;-0.10;99.90
10129;DHT22;5104;50.720;7.044;2023-01-26T04:09:56;-0.10;99.90
10129;DHT22;5104;50.720;7.044;2023-01-26T04:12:23;-0.20;99.90
10129;DHT22;5104;50.720;7.044;2023-01-26T04:14:50;-0.30;99.90
10129;DHT22;5104;50.720;7.044;2023-01-26T04:17:36;-0.20;99.90
10129;DHT22;5104;50.720;7.044;2023-01-26T04:20:20;-0.20;99.90
10129;DHT22;5104;50.720;7.044;2023-01-26T04:23:04;-0.20;99.90
10129;DHT22;5104;50.720;7.044;2023-01-26T04:25:31;-0.20;99.90
10129;DHT22;5104;50.720;7.044;2023-01-26T04:27:58;-0.10;99.90
10129;DHT22;5104;50.720;7.044;2023-01-26T04:30:25;-0.10;99.90
10129;DHT22;5104;50.720;7.044;2023-01-26T04:32:53;-0.10;99.90
10129;DHT22;5104;50.720;7.044;2023-01-26T04:35:19;-0.10;99.90
10129;DHT22;5104;50.720;7.044;2023-01-26T04:37:46;-0.20;99.90
10129;DHT22;5104;50.720;7.044;2023-01-26T04:40:13;-0.10;99.90
10129;DHT22;5104;50.720;7.044;2023-01-26T04:42:40;-0.10;99.90
10129;DHT22;5104;50.720;7.044;2023-01-26T04:45:09;-0.10;99.90
10129;DHT22;5104;50.720;7.044;2023-01-26T04:47:36;-0.10;99.90
10129;DHT22;5104;50.720;7.044;2023-01-26T04:50:04;-0.10;99.90
10129;DHT22;5104;50.720;7.044;2023-01-26T04:52:31;-0.10;99.90
10129;DHT22;5104;50.720;7.044;2023-01-26T04:54:58;0.00;99.90
10129;DHT22;5104;50.720;7.044;2023-01-26T04:57:25;-0.10;99.90
10129;DHT22;5104;50.720;7.044;2023-01-26T04:59:52;-0.10;99.90
10129;DHT22;5104;50.720;7.044;2023-01-26T05:02:19;-0.10;99.90
10129;DHT22;5104;50.720;7.044;2023-01-26T05:04:46;-0.10;99.90
10129;DHT22;5104;50.720;7.044;2023-01-26T05:07:14;-0.10;99.90
10129;DHT22;5104;50.720;7.044;2023-01-26T05:09:41;-0.10;99.90
10129;DHT22;5104;50.720;7.044;2023-01-26T05:12:07;-0.10;99.90
10129;DHT22;5104;50.720;7.044;2023-01-26T05:14:52;-0.10;99.90
10129;DHT22;5104;50.720;7.044;2023-01-26T05:17:19;-0.20;99.90
10129;DHT22;5104;50.720;7.044;2023-01-26T05:19:45;-0.10;99.90
10129;DHT22;5104;50.720;7.044;2023-01-26T05:22:14;-0.20;99.90
10129;DHT22;5104;50.720;7.044;2023-01-26T05:24:41;-0.20;99.90
10129;DHT22;5104;50.720;7.044;2023-01-26T05:27:07;-0.20;99.90
10129;DHT22;5104;50.720;7.044;2023-01-26T05:29:50;-0.20;99.90
10129;DHT22;5104;50.720;7.044;2023-01-26T05:32:17;-0.20;99.90
10129;DHT22;5104;50.720;7.044;2023-01-26T05:34:44;-0.10;99.90
10129;DHT22;5104;50.720;7.044;2023-01-26T05:37:11;-0.10;99.90
10129;DHT22;5104;50.720;7.044;2023-01-26T05:39:39;-0.10;99.90
10129;DHT22;5104;50.720;7.044;2023-01-26T05:42:06;-0.10;99.90
10129;DHT22;5104;50.720;7.044;2023-01-26T05:44:33;-0.10;99.90
10129;DHT22;5104;50.720;7.044;2023-01-26T05:46:59;0.00;99.90
10129;DHT22;5104;50.720;7.044;2023-01-26T05:49:26;-0.10;99.90
10129;DHT22;5104;50.720;7.044;2023-01-26T05:51:53;0.00;99.90
10129;DHT22;5104;50.720;7.044;2023-01-26T05:54:20;0.00;99.90
10129;DHT22;5104;50.720;7.044;2023-01-26T05:56:48;-0.10;99.90
10129;DHT22;5104;50.720;7.044;2023-01-26T05:59:15;-0.10;99.90
10129;DHT22;5104;50.720;7.044;2023-01-26T06:01:42;-0.10;99.90
10129;DHT22;5104;50.720;7.044;2023-01-26T06:04:09;0.00;99.90
10129;DHT22;5104;50.720;7.044;2023-01-26T06:06:36;0.00;99.90
10129;DHT22;5104;50.720;7.044;2023-01-26T06:09:03;0.00;99.90
10129;DHT22;5104;50.720;7.044;2023-01-26T06:11:31;0.00;99.90
10129;DHT22;5104;50.720;7.044;2023-01-26T06:13:59;0.00;99.90
10129;DHT22;5104;50.720;7.044;2023-01-26T06:16:26;0.00;99.90
10129;DHT22;5104;50.720;7.044;2023-01-26T06:18:53;0.10;99.90
10129;DHT22;5104;50.720;7.044;2023-01-26T06:21:19;0.10;99.90
10129;DHT22;5104;50.720;7.044;2023-01-26T06:23:46;0.00;99.90
10129;DHT22;5104;50.720;7.044;2023-01-26T06:26:13;0.10;99.90
10129;DHT22;5104;50.720;7.044;2023-01-26T06:28:40;0.10;99.90
10129;DHT22;5104;50.720;7.044;2023-01-26T06:31:09;0.10;99.90
10129;DHT22;5104;50.720;7.044;2023-01-26T06:33:36;0.10;99.90
10129;DHT22;5104;50.720;7.044;2023-01-26T06:36:06;0.10;99.90
10129;DHT22;5104;50.720;7.044;2023-01-26T06:38:34;0.10;99.90
10129;DHT22;5104;50.720;7.044;2023-01-26T06:41:02;0.10;99.90
10129;DHT22;5104;50.720;7.044;2023-01-26T06:43:29;0.20;99.90
10129;DHT22;5104;50.720;7.044;2023-01-26T06:45:56;0.20;99.90
10129;DHT22;5104;50.720;7.044;2023-01-26T06:48:26;0.10;99.90
10129;DHT22;5104;50.720;7.044;2023-01-26T06:50:55;0.20;99.90
10129;DHT22;5104;50.720;7.044;2023-01-26T06:53:28;0.20;99.90
10129;DHT22;5104;50.720;7.044;2023-01-26T06:55:55;0.10;99.90
10129;DHT22;5104;50.720;7.044;2023-01-26T06:58:23;0.10;99.90
10129;DHT22;5104;50.720;7.044;2023-01-26T07:00:49;0.20;99.90
10129;DHT22;5104;50.720;7.044;2023-01-26T07:03:16;0.20;99.90
10129;DHT22;5104;50.720;7.044;2023-01-26T07:05:44;0.20;99.90
10129;DHT22;5104;50.720;7.044;2023-01-26T07:08:11;0.20;99.90
10129;DHT22;5104;50.720;7.044;2023-01-26T07:10:38;0.20;99.90
10129;DHT22;5104;50.720;7.044;2023-01-26T07:13:06;0.20;99.90
10129;DHT22;5104;50.720;7.044;2023-01-26T07:15:33;0.20;99.90
10129;DHT22;5104;50.720;7.044;2023-01-26T07:18:00;0.20;99.90
10129;DHT22;5104;50.720;7.044;2023-01-26T07:20:27;0.30;99.90
10129;DHT22;5104;50.720;7.044;2023-01-26T07:22:55;0.30;99.90
10129;DHT22;5104;50.720;7.044;2023-01-26T07:25:22;0.30;99.90
10129;DHT22;5104;50.720;7.044;2023-01-26T07:27:54;0.30;99.90
10129;DHT22;5104;50.720;7.044;2023-01-26T07:30:21;0.30;99.90
10129;DHT22;5104;50.720;7.044;2023-01-26T07:32:48;0.30;99.90
10129;DHT22;5104;50.720;7.044;2023-01-26T07:35:15;0.30;99.90
10129;DHT22;5104;50.720;7.044;2023-01-26T07:37:42;0.30;99.90
10129;DHT22;5104;50.720;7.044;2023-01-26T07:40:11;0.30;99.90
10129;DHT22;5104;50.720;7.044;2023-01-26T07:42:38;0.40;99.90
10129;DHT22;5104;50.720;7.044;2023-01-26T07:45:06;0.40;99.90
10129;DHT22;5104;50.720;7.044;2023-01-26T07:47:33;0.40;99.90
10129;DHT22;5104;50.720;7.044;2023-01-26T07:50:01;0.40;99.90
10129;DHT22;5104;50.720;7.044;2023-01-26T07:52:28;0.40;99.90
10129;DHT22;5104;50.720;7.044;2023-01-26T07:54:54;0.40;99.90
10129;DHT22;5104;50.720;7.044;2023-01-26T07:57:23;0.40;99.90
10129;DHT22;5104;50.720;7.044;2023-01-26T07:59:49;0.40;99.90
10129;DHT22;5104;50.720;7.044;2023-01-26T08:02:16;0.40;99.90
10129;DHT22;5104;50.720;7.044;2023-01-26T08:04:43;0.40;99.90
10129;DHT22;5104;50.720;7.044;2023-01-26T08:07:10;0.50;99.90
10129;DHT22;5104;50.720;7.044;2023-01-26T08:09:37;0.50;99.90
10129;DHT22;5104;50.720;7.044;2023-01-26T08:12:04;0.40;99.90
10129;DHT22;5104;50.720;7.044;2023-01-26T08:14:33;0.50;99.90
10129;DHT22;5104;50.720;7.044;2023-01-26T08:17:01;0.60;99.90
10129;DHT22;5104;50.720;7.044;2023-01-26T08:19:28;0.60;99.90
10129;DHT22;5104;50.720;7.044;2023-01-26T08:21:54;0.50;99.90
10129;DHT22;5104;50.720;7.044;2023-01-26T08:24:22;0.50;99.90
10129;DHT22;5104;50.720;7.044;2023-01-26T08:26:51;0.60;99.90
10129;DHT22;5104;50.720;7.044;2023-01-26T08:29:17;0.60;99.90
10129;DHT22;5104;50.720;7.044;2023-01-26T08:31:46;0.60;99.90
10129;DHT22;5104;50.720;7.044;2023-01-26T08:34:13;0.80;99.90
10129;DHT22;5104;50.720;7.044;2023-01-26T08:36:40;0.90;99.90
10129;DHT22;5104;50.720;7.044;2023-01-26T08:39:07;1.00;99.90
10129;DHT22;5104;50.720;7.044;2023-01-26T08:41:34;1.00;99.90
10129;DHT22;5104;50.720;7.044;2023-01-26T08:44:01;1.20;99.90
10129;DHT22;5104;50.720;7.044;2023-01-26T08:46:28;1.10;99.90
10129;DHT22;5104;50.720;7.044;2023-01-26T08:48:56;1.10;99.90
10129;DHT22;5104;50.720;7.044;2023-01-26T08:51:23;1.10;99.90
10129;DHT22;5104;50.720;7.044;2023-01-26T08:53:50;1.10;99.90
10129;DHT22;5104;50.720;7.044;2023-01-26T08:56:19;1.10;99.90
10129;DHT22;5104;50.720;7.044;2023-01-26T08:58:46;1.00;99.90
10129;DHT22;5104;50.720;7.044;2023-01-26T09:01:15;1.10;99.90
10129;DHT22;5104;50.720;7.044;2023-01-26T09:03:42;1.20;99.90
10129;DHT22;5104;50.720;7.044;2023-01-26T09:06:11;1.20;29.30
10129;DHT22;5104;50.720;7.044;2023-01-26T09:08:39;1.10;34.80
10129;DHT22;5104;50.720;7.044;2023-01-26T09:11:06;1.10;30.90
10129;DHT22;5104;50.720;7.044;2023-01-26T09:13:33;1.20;7.50
10129;DHT22;5104;50.720;7.044;2023-01-26T09:16:02;1.30;1.00
10129;DHT22;5104;50.720;7.044;2023-01-26T09:18:29;1.20;1.00
10129;DHT22;5104;50.720;7.044;2023-01-26T09:21:02;1.20;1.00
10129;DHT22;5104;50.720;7.044;2023-01-26T09:23:30;1.10;1.00
10129;DHT22;5104;50.720;7.044;2023-01-26T09:25:57;1.10;1.00
10129;DHT22;5104;50.720;7.044;2023-01-26T09:28:24;1.20;1.00
10129;DHT22;5104;50.720;7.044;2023-01-26T09:30:51;1.30;1.00
10129;DHT22;5104;50.720;7.044;2023-01-26T09:33:18;1.30;1.00
10129;DHT22;5104;50.720;7.044;2023-01-26T09:35:46;1.40;1.00
10129;DHT22;5104;50.720;7.044;2023-01-26T09:38:13;1.40;1.00
10129;DHT22;5104;50.720;7.044;2023-01-26T09:40:47;1.50;1.00
10129;DHT22;5104;50.720;7.044;2023-01-26T09:43:28;1.50;1.00
10129;DHT22;5104;50.720;7.044;2023-01-26T09:46:02;1.50;1.00
10129;DHT22;5104;50.720;7.044;2023-01-26T09:48:36;1.50;1.00
10129;DHT22;5104;50.720;7.044;2023-01-26T09:51:10;1.70;1.00
10129;DHT22;5104;50.720;7.044;2023-01-26T09:53:43;1.60;1.00
10129;DHT22;5104;50.720;7.044;2023-01-26T09:56:16;1.70;1.00
10129;DHT22;5104;50.720;7.044;2023-01-26T09:58:46;1.60;1.00
10129;DHT22;5104;50.720;7.044;2023-01-26T10:01:19;1.70;1.00
10129;DHT22;5104;50.720;7.044;2023-01-26T10:03:53;1.60;1.00
10129;DHT22;5104;50.720;7.044;2023-01-26T10:06:24;1.70;1.00
10129;DHT22;5104;50.720;7.044;2023-01-26T10:08:53;1.80;99.90
10129;DHT22;5104;50.720;7.044;2023-01-26T10:11:27;1.80;1.00
10129;DHT22;5104;50.720;7.044;2023-01-26T10:13:59;1.70;1.00
10129;DHT22;5104;50.720;7.044;2023-01-26T10:16:27;1.70;99.90
10129;DHT22;5104;50.720;7.044;2023-01-26T10:18:59;1.70;1.00
10129;DHT22;5104;50.720;7.044;2023-01-26T10:21:32;1.70;1.00
10129;DHT22;5104;50.720;7.044;2023-01-26T10:24:00;1.80;1.00
10129;DHT22;5104;50.720;7.044;2023-01-26T10:26:32;1.90;23.20
10129;DHT22;5104;50.720;7.044;2023-01-26T10:28:59;1.90;99.90
10129;DHT22;5104;50.720;7.044;2023-01-26T10:31:27;2.00;99.90
10129;DHT22;5104;50.720;7.044;2023-01-26T10:34:00;2.00;99.90
10129;DHT22;5104;50.720;7.044;2023-01-26T10:36:29;2.10;1.00
10129;DHT22;5104;50.720;7.044;2023-01-26T10:39:03;2.00;1.00
10129;DHT22;5104;50.720;7.044;2023-01-26T10:41:32;2.20;1.00
10129;DHT22;5104;50.720;7.044;2023-01-26T10:44:01;2.10;99.30
10129;DHT22;5104;50.720;7.044;2023-01-26T10:46:34;2.10;99.90
10129;DHT22;5104;50.720;7.044;2023-01-26T10:49:15;2.10;1.00
10129;DHT22;5104;50.720;7.044;2023-01-26T10:51:43;2.10;1.00
10129;DHT22;5104;50.720;7.044;2023-01-26T10:54:19;2.10;99.90
10129;DHT22;5104;50.720;7.044;2023-01-26T10:56:50;2.20;1.00
10129;DHT22;5104;50.720;7.044;2023-01-26T10:59:31;2.30;1.00
10129;DHT22;5104;50.720;7.044;2023-01-26T11:02:01;2.40;99.90
10129;DHT22;5104;50.720;7.044;2023-01-26T11:04:29;2.30;1.00
10129;DHT22;5104;50.720;7.044;2023-01-26T11:07:19;2.30;99.90
10129;DHT22;5104;50.720;7.044;2023-01-26T11:09:49;2.30;1.00
10129;DHT22;5104;50.720;7.044;2023-01-26T11:12:19;2.40;1.00
10129;DHT22;5104;50.720;7.044;2023-01-26T11:14:59;2.40;1.00
10129;DHT22;5104;50.720;7.044;2023-01-26T11:17:31;2.50;1.00
10129;DHT22;5104;50.720;7.044;2023-01-26T11:20:28;2.50;1.00
10129;DHT22;5104;50.720;7.044;2023-01-26T11:22:59;2.60;99.90
10129;DHT22;5104;50.720;7.044;2023-01-26T11:25:34;2.60;99.90
10129;DHT22;5104;50.720;7.044;2023-01-26T11:28:19;2.60;1.00
10129;DHT22;5104;50.720;7.044;2023-01-26T11:31:11;2.60;1.00
10129;DHT22;5104;50.720;7.044;2023-01-26T11:33:50;2.60;60.60
10129;DHT22;5104;50.720;7.044;2023-01-26T11:36:26;2.60;1.00
10129;DHT22;5104;50.720;7.044;2023-01-26T11:39:00;2.70;99.90
10129;DHT22;5104;50.720;7.044;2023-01-26T11:41:37;2.90;1.00
10129;DHT22;5104;50.720;7.044;2023-01-26T11:44:31;3.00;1.00
10129;DHT22;5104;50.720;7.044;2023-01-26T11:47:10;2.90;1.00
10129;DHT22;5104;50.720;7.044;2023-01-26T11:50:02;2.80;1.00
10129;DHT22;5104;50.720;7.044;2023-01-26T11:52:35;2.70;99.90
10129;DHT22;5104;50.720;7.044;2023-01-26T11:55:19;2.70;1.00
10129;DHT22;5104;50.720;7.044;2023-01-26T11:57:59;2.60;1.00
10129;DHT22;5104;50.720;7.044;2023-01-26T12:00:37;2.50;99.90
10129;DHT22;5104;50.720;7.044;2023-01-26T12:03:16;2.60;1.00
10129;DHT22;5104;50.720;7.044;2023-01-26T12:05:47;2.60;1.00
10129;DHT22;5104;50.720;7.044;2023-01-26T12:08:21;2.60;79.50
10129;DHT22;5104;50.720;7.044;2023-01-26T12:10:57;2.60;99.90
10129;DHT22;5104;50.720;7.044;2023-01-26T12:13:48;2.60;99.90
10129;DHT22;5104;50.720;7.044;2023-01-26T12:16:26;2.70;1.00
10129;DHT22;5104;50.720;7.044;2023-01-26T12:19:01;2.70;1.00
10129;DHT22;5104;50.720;7.044;2023-01-26T12:21:31;2.60;1.00
10129;DHT22;5104;50.720;7.044;2023-01-26T12:24:02;2.60;1.00
10129;DHT22;5104;50.720;7.044;2023-01-26T12:26:32;2.70;99.90
10129;DHT22;5104;50.720;7.044;2023-01-26T12:29:05;2.40;1.00
10129;DHT22;5104;50.720;7.044;2023-01-26T12:31:40;2.40;1.00
10129;DHT22;5104;50.720;7.044;2023-01-26T12:34:12;2.40;1.00
10129;DHT22;5104;50.720;7.044;2023-01-26T12:36:44;2.40;1.00
10129;DHT22;5104;50.720;7.044;2023-01-26T12:39:17;2.30;1.00
10129;DHT22;5104;50.720;7.044;2023-01-26T12:42:00;2.30;1.00
10129;DHT22;5104;50.720;7.044;2023-01-26T12:44:34;2.20;1.00
10129;DHT22;5104;50.720;7.044;2023-01-26T12:47:08;2.20;1.00
10129;DHT22;5104;50.720;7.044;2023-01-26T12:49:45;2.20;1.00
10129;DHT22;5104;50.720;7.044;2023-01-26T12:52:17;2.10;54.90
10129;DHT22;5104;50.720;7.044;2023-01-26T12:54:53;2.10;99.90
10129;DHT22;5104;50.720;7.044;2023-01-26T12:57:25;2.20;99.90
10129;DHT22;5104;50.720;7.044;2023-01-26T13:00:03;2.10;83.80
10129;DHT22;5104;50.720;7.044;2023-01-26T13:02:35;2.20;99.90
10129;DHT22;5104;50.720;7.044;2023-01-26T13:05:02;2.20;99.90
10129;DHT22;5104;50.720;7.044;2023-01-26T13:07:33;2.20;62.80
10129;DHT22;5104;50.720;7.044;2023-01-26T13:10:22;2.20;99.90
10129;DHT22;5104;50.720;7.044;2023-01-26T13:12:51;2.20;99.90
10129;DHT22;5104;50.720;7.044;2023-01-26T13:15:20;2.20;99.90
10129;DHT22;5104;50.720;7.044;2023-01-26T13:17:52;2.20;99.90
10129;DHT22;5104;50.720;7.044;2023-01-26T13:20:28;2.10;99.90
10129;DHT22;5104;50.720;7.044;2023-01-26T13:26:15;2.20;99.90
10129;DHT22;5104;50.720;7.044;2023-01-26T13:28:42;2.10;99.90
10129;DHT22;5104;50.720;7.044;2023-01-26T13:31:10;2.10;99.90
10129;DHT22;5104;50.720;7.044;2023-01-26T13:33:50;2.10;99.90
10129;DHT22;5104;50.720;7.044;2023-01-26T13:36:18;2.10;99.90
10129;DHT22;5104;50.720;7.044;2023-01-26T13:38:52;2.10;99.90
10129;DHT22;5104;50.720;7.044;2023-01-26T13:41:21;2.10;99.90
10129;DHT22;5104;50.720;7.044;2023-01-26T13:43:51;2.10;99.90
10129;DHT22;5104;50.720;7.044;2023-01-26T13:46:23;2.00;99.90
10129;DHT22;5104;50.720;7.044;2023-01-26T13:48:56;2.10;99.90
10129;DHT22;5104;50.720;7.044;2023-01-26T13:51:25;2.10;99.90
10129;DHT22;5104;50.720;7.044;2023-01-26T13:53:56;2.10;99.90
10129;DHT22;5104;50.720;7.044;2023-01-26T13:56:26;2.20;99.90
10129;DHT22;5104;50.720;7.044;2023-01-26T13:58:59;2.20;99.90
10129;DHT22;5104;50.720;7.044;2023-01-26T14:01:28;2.20;99.90
10129;DHT22;5104;50.720;7.044;2023-01-26T14:04:03;2.20;99.90
10129;DHT22;5104;50.720;7.044;2023-01-26T14:06:30;2.20;99.90
10129;DHT22;5104;50.720;7.044;2023-01-26T14:08:57;2.30;99.90
10129;DHT22;5104;50.720;7.044;2023-01-26T14:11:26;2.20;99.90
10129;DHT22;5104;50.720;7.044;2023-01-26T14:13:56;2.20;99.90
10129;DHT22;5104;50.720;7.044;2023-01-26T14:16:31;2.20;99.90
10129;DHT22;5104;50.720;7.044;2023-01-26T14:19:12;2.20;99.90
10129;DHT22;5104;50.720;7.044;2023-01-26T14:21:45;2.20;99.90
10129;DHT22;5104;50.720;7.044;2023-01-26T14:24:12;2.20;99.90
10129;DHT22;5104;50.720;7.044;2023-01-26T14:26:39;2.20;99.90
10129;DHT22;5104;50.720;7.044;2023-01-26T14:29:10;2.20;99.90
10129;DHT22;5104;50.720;7.044;2023-01-26T14:31:37;2.20;99.90
10129;DHT22;5104;50.720;7.044;2023-01-26T14:34:09;2.20;99.90
10129;DHT22;5104;50.720;7.044;2023-01-26T14:36:36;2.20;99.90
10129;DHT22;5104;50.720;7.044;2023-01-26T14:39:18;2.20;99.90
10129;DHT22;5104;50.720;7.044;2023-01-26T14:41:46;2.20;99.90
10129;DHT22;5104;50.720;7.044;2023-01-26T14:44:14;2.20;99.90
10129;DHT22;5104;50.720;7.044;2023-01-26T14:46:50;2.20;99.90
10129;DHT22;5104;50.720;7.044;2023-01-26T14:49:23;2.10;99.90
10129;DHT22;5104;50.720;7.044;2023-01-26T14:51:54;2.10;99.90
10129;DHT22;5104;50.720;7.044;2023-01-26T14:54:26;2.20;99.90
10129;DHT22;5104;50.720;7.044;2023-01-26T14:56:54;2.20;99.90
10129;DHT22;5104;50.720;7.044;2023-01-26T14:59:32;2.20;99.90
10129;DHT22;5104;50.720;7.044;2023-01-26T15:02:12;2.20;99.90
10129;DHT22;5104;50.720;7.044;2023-01-26T15:04:46;2.20;99.90
10129;DHT22;5104;50.720;7.044;2023-01-26T15:10:25;2.20;99.90
10129;DHT22;5104;50.720;7.044;2023-01-26T15:12:58;2.20;99.90
10129;DHT22;5104;50.720;7.044;2023-01-26T15:15:27;2.20;99.90
10129;DHT22;5104;50.720;7.044;2023-01-26T15:18:04;2.20;99.90
10129;DHT22;5104;50.720;7.044;2023-01-26T15:20:39;2.30;99.90
10129;DHT22;5104;50.720;7.044;2023-01-26T15:23:25;2.20;99.90
10129;DHT22;5104;50.720;7.044;2023-01-26T15:25:54;2.20;99.90
10129;DHT22;5104;50.720;7.044;2023-01-26T15:28:23;2.20;99.90
10129;DHT22;5104;50.720;7.044;2023-01-26T15:30:53;2.20;99.90
10129;DHT22;5104;50.720;7.044;2023-01-26T15:33:54;2.20;99.90
10129;DHT22;5104;50.720;7.044;2023-01-26T15:36:33;2.10;99.90
10129;DHT22;5104;50.720;7.044;2023-01-26T15:39:08;2.00;99.90
10129;DHT22;5104;50.720;7.044;2023-01-26T15:41:37;2.00;99.90
10129;DHT22;5104;50.720;7.044;2023-01-26T15:44:07;2.00;99.90
10129;DHT22;5104;50.720;7.044;2023-01-26T15:46:35;2.00;99.90
10129;DHT22;5104;50.720;7.044;2023-01-26T15:49:02;2.10;99.90
10129;DHT22;5104;50.720;7.044;2023-01-26T15:51:29;2.20;99.90
10129;DHT22;5104;50.720;7.044;2023-01-26T15:53:55;2.20;99.90
10129;DHT22;5104;50.720;7.044;2023-01-26T15:56:22;2.20;99.90
10129;DHT22;5104;50.720;7.044;2023-01-26T15:58:51;2.20;99.90
10129;DHT22;5104;50.720;7.044;2023-01-26T16:01:20;2.30;99.90
10129;DHT22;5104;50.720;7.044;2023-01-26T16:03:47;2.30;99.90
10129;DHT22;5104;50.720;7.044;2023-01-26T16:06:23;2.30;99.90
10129;DHT22;5104;50.720;7.044;2023-01-26T16:08:50;2.30;99.90
10129;DHT22;5104;50.720;7.044;2023-01-26T16:11:18;2.20;99.90
10129;DHT22;5104;50.720;7.044;2023-01-26T16:13:45;2.20;99.90
10129;DHT22;5104;50.720;7.044;2023-01-26T16:16:15;2.30;99.90
10129;DHT22;5104;50.720;7.044;2023-01-26T16:18:42;2.30;99.90
10129;DHT22;5104;50.720;7.044;2023-01-26T16:21:20;2.30;99.90
10129;DHT22;5104;50.720;7.044;2023-01-26T16:23:48;2.30;99.90
10129;DHT22;5104;50.720;7.044;2023-01-26T16:26:17;2.20;99.90
10129;DHT22;5104;50.720;7.044;2023-01-26T16:28:44;2.30;99.90
10129;DHT22;5104;50.720;7.044;2023-01-26T16:31:15;2.30;99.90
10129;DHT22;5104;50.720;7.044;2023-01-26T16:33:43;2.40;99.90
10129;DHT22;5104;50.720;7.044;2023-01-26T16:36:12;2.40;99.90